General Electric Gross Margin 2010-2022 | GE

Current and historical gross margin for General Electric (GE) over the last 10 years. The current gross profit margin for General Electric as of September 30, 2022 is %.
General Electric Gross Margin Historical Data
Date TTM Revenue TTM Gross Profit Gross Margin
2022-09-30 $75.07B $20.67B 27.53%
2022-06-30 $74.56B $21.12B 28.33%
2022-03-31 $74.17B $20.35B 27.44%
2021-12-31 $74.20B $20.30B 27.36%
2021-09-30 $74.90B $19.58B 26.13%
2021-06-30 $74.86B $18.90B 25.24%
2021-03-31 $73.41B $17.43B 23.75%
2020-12-31 $75.83B $17.96B 23.69%
2020-09-30 $76.07B $20.06B 26.38%
2020-06-30 $80.90B $21.61B 26.71%
2020-03-31 $87.51B $24.44B 27.93%
2019-12-31 $90.22B $25.37B 28.12%
2019-09-30 $85.65B $25.80B 30.13%
2019-06-30 $85.68B $25.32B 29.55%
2019-03-31 $91.43B $26.73B 29.23%
2018-12-31 $97.01B $27.61B 28.46%
2018-09-30 $92.98B $22.41B 24.10%
2018-06-30 $100.25B $23.85B 23.79%
2018-03-31 $100.19B $23.91B 23.87%
2017-12-31 $99.28B $23.69B 23.86%
2017-09-30 $115.50B $26.04B 22.54%
2017-06-30 $114.11B $27.35B 23.97%
2017-03-31 $118.51B $30.98B 26.15%
2016-12-31 $119.47B $31.82B 26.63%
2016-09-30 $124.50B $37.20B 29.88%
2016-06-30 $123.26B $37.08B 30.08%
2016-03-31 $118.99B $34.62B 29.09%
2015-12-31 $117.39B $34.69B 29.55%
2015-09-30 $102.76B $18.22B 17.73%
2015-06-30 $106.84B $22.41B 20.98%
2015-03-31 $109.88B $26.01B 23.67%
2014-12-31 $117.18B $33.48B 28.57%
2014-09-30 $105.50B $22.65B 21.47%
2014-06-30 $109.05B $26.49B 24.29%
2014-03-31 $111.85B $30.80B 27.54%
2013-12-31 $113.25B $33.40B 29.50%
2013-09-30 $144.62B $70.62B 48.83%
2013-06-30 $145.21B $72.16B 49.69%
2013-03-31 $146.55B $72.79B 49.67%
2012-12-31 $146.68B $72.37B 49.34%
2012-09-30 $144.96B $71.99B 49.67%
2012-06-30 $144.07B $72.85B 50.57%
2012-03-31 $143.29B $73.86B 51.55%
2011-12-31 $146.54B $78.26B 53.41%
2011-09-30 $150.38B $79.11B 52.61%
2011-06-30 $150.39B $79.25B 52.70%
2011-03-31 $151.69B $80.78B 53.25%
2010-12-31 $149.57B $77.85B 52.05%
2010-09-30 $147.60B $75.76B 51.33%
2010-06-30 $150.02B $76.27B 50.84%
2010-03-31 $152.20B $76.84B 50.48%
2009-12-31 $154.44B $78.52B 50.84%
Sector Industry Market Cap Revenue
Multi-Sector Conglomerates Diversified Operations $92.877B $74.196B
General Electric Co. is popular for its LEAP aircraft engines, heavy-duty gas turbines, Haliade-X and Cypress wind turbines, and healthcare solutions. Its products and services range from jet engines, airframes, energy production solutions to offshore wind turbines, technologies in medical imaging, and leasing and financing services, etc. It has the following operating segments: Power produces steam & gas turbines, power generation services, and generators. The Power segment includes Gas Power and Power Portfolio. While Gas Power includes GE's gas lifecycle business, Power Portfolio comprises Steam Power Systems, GE Hitachi Nuclear and Power Conversion businesses. Aviation offers commercial jet engines and components, and aftermarket services. Healthcare provides technologies in patient monitoring, medical imaging, drug discovery, patient monitoring. Renewable Energy provides offshore wind turbines, high-voltage equipment, blades for wind turbines (onshore and offshore), and other products and services.
Stock Name Country Market Cap PE Ratio
Danaher (DHR) United States $195.269B 24.91
3M (MMM) United States $69.839B 12.47
Carlisle (CSL) United States $12.979B 13.22
ITT (ITT) United States $6.671B 19.16
Federal Signal (FSS) United States $2.827B 25.91
Griffon (GFF) United States $1.982B 8.51
Vector Group (VGR) United States $1.701B 11.95
Lsb Industries (LXU) United States $1.180B 5.56
Steel Partners Holdings LP (SPLP) United States $0.928B 10.90
National Presto Industries (NPK) United States $0.484B 22.42
INNOVATE (VATE) United States $0.116B 0.00